AirNav   Everest Fuels
 
 884 users online  

OG31 Shady Cove Airpark
Shady Cove, Oregon, USA

GOING TO SHADY COVE?


FAA INFORMATION EFFECTIVE 26 JANUARY 2023

Location

FAA Identifier: OG31
Lat/Long: 42-36-31.4050N 122-49-45.9700W
42-36.523417N 122-49.766167W
42.6087236,-122.8294361
(estimated)
Elevation: 1522 ft. / 464 m (estimated)
Variation: 18E (1985)
From city: 1 mile W of SHADY COVE, OR
Time zone: UTC -8 (UTC -7 during Daylight Saving Time)
Zip code: 97539

Airport Operations

Airport use: Private use. Permission required prior to landing
Activation date: 08/1949
Control tower: no
ARTCC: SEATTLE CENTER
FSS: MC MINNVILLE FLIGHT SERVICE STATION
Attendance: UNATNDD
Wind indicator: yes
Segmented circle: no

Airport Communications

WX ASOS at MFR (14 nm S): 127.25 (541-776-1238)

Nearby radio navigation aids

VOR radial/distance  VOR name  Freq  Var
OEDr006/8.6ROGUE VALLEY VORTAC113.6019E

 
NDB name  Hdg/Dist  Freq  Var  ID
MEDFORD354/13.235616EMEF -- . ..-.

Airport Services

Parking: hangars
Airframe service: NONE
Powerplant service: NONE

Runway Information

Runway 18/36

Dimensions: 2600 x 25 ft. / 792 x 8 m
Surface: turf/gravel
RUNWAY 18  RUNWAY 36
Latitude: 42-36.732500N42-36.314333N
Longitude: 122-49.704167W122-49.828167W
Elevation: 1522.0 ft.1508.0 ft.
Traffic pattern: rightleft
Markings: nonenone
Obstructions: 80 ft. pline, 100 ft. from runway
PLINES INDISTINGUISHABLE BOTH ENDS BECAUSE OF TREES, NO MARKERS.
100 ft. pline, 100 ft. from runway

Airport Ownership and Management from official FAA records

Ownership: Privately-owned
Owner: ROGUE AIR INC
P O BOX 1550
SHADY COVE, OR 97539
Phone 541-878-3600
Manager: TIM TEPPER
PO BOX 1550
SHADY COVE, OR 97539
Phone 541-878-3600

Airport Operational Statistics

Aircraft based on the field: 18
Single engine airplanes: 15
Gliders airplanes: 2
Ultralights: 1
    
Aircraft operations: avg 84/month *
49% transient general aviation
49% local general aviation
1% air taxi
* for 12-month period ending 29 April 1982

Additional Remarks

RWY SFC GRASSED; SOFT SPOTS NORTH END. DO NOT LAND WHEN WATER VISIBLE.
FOR CD CTC CASCADE APCH AT 541-607-4676/4675, WHEN APCH CLSD CTC SEATTLE ARTCC AT 253-351-3694.

Instrument Procedures

There are no published instrument procedures at OG31.

Some nearby airports with instrument procedures:

KMFR - Rogue Valley International - Medford Airport (14 nm S)
3S8 - Grants Pass Airport (25 nm W)
KRBG - Roseburg Regional Airport (44 nm NW)
KSIY - Siskiyou County Airport (52 nm S)
KLMT - Crater Lake/Klamath Regional Airport (56 nm SE)
 
Loc | Ops | Rwys | IFR | FBO | Links
Com | Nav | Svcs | Stats | Notes
Area around OG31 (Shady Cove Airpark)
 
Road maps at: MapQuest Bing Google
 
Aerial photo
WARNING: Photo may not be current or correct
Aerial photo of OG31 (Shady Cove Airpark)
Do you have a better or more recent aerial photo of Shady Cove Airpark that you would like to share? If so, please send us your photo.

 
Sectional chart

 
Airport distance calculator
Flying to Shady Cove Airpark? Find the distance to fly.

From to OG31

Sunrise and sunset
Times for 28-Jan-2023
 Local
(UTC-8)
 Zulu
(UTC)
Morning civil twilight07:0015:00
Sunrise07:3015:30
Sunset17:1801:18
Evening civil twilight17:4901:49

Current date and time
Zulu (UTC)  29-Jan-2023 03:17:23
Local (UTC-8)  28-Jan-2023 19:17:23
 
METAR
KMFR 
14nm S 
290253Z AUTO 03003KT 10SM OVC050 06/00 A2998 RMK AO2 SLP157 T00560000 52002
KSXT 
24nm W 
290256Z AUTO 34003KT 10SM OVC090 M01/M03 A2991 RMK AO2 SLP158 T10111028 58007
K3S8 
25nm W 
290255Z AUTO 00000KT 10SM SCT042 BKN110 05/M00 A3002 RMK AO2
TAF
KMFR 
14nm S 
281740Z 2818/2918 VRB02KT P6SM BKN040 FM282100 33003KT P6SM SCT040 FM290300 VRB03KT P6SM -SHRA OVC040 FM290600 35005KT P6SM -RASN OVC025 FM291200 16006KT P6SM OVC025
NOTAMs
Click for the latest NOTAMs
NOTAMs are issued by the DoD/FAA and will open in a separate window not controlled by AirNav.

 

 
 

Would you like to see your business listed on this page?

 If your business provides an interesting product or service to pilots, flight crews, aircraft, or users of the Shady Cove Airpark, you should consider listing it here.  To start the listing process, click on the button below
 
Add a business
 

Other Pages about Shady Cove Airpark

Update a link
 
Copyright © AirNav, LLC. All rights reserved. Privacy Policy  Contact